createdAt,value
2023-01-03T00:00:31.950Z,4.92
2023-01-03T00:01:34.365Z,4.92
2023-01-03T00:02:36.321Z,4.92
2023-01-03T00:03:38.435Z,4.92
2023-01-03T00:04:44.490Z,4.88
2023-01-03T00:05:49.967Z,4.91
2023-01-03T00:06:52.740Z,4.92
2023-01-03T00:07:54.791Z,4.94
2023-01-03T00:08:57.407Z,4.94
2023-01-03T00:10:00.332Z,4.95
2023-01-03T00:11:02.149Z,4.96
2023-01-03T00:12:28.584Z,4.96
2023-01-03T00:13:32.430Z,4.98
2023-01-03T00:14:37.362Z,4.96
2023-01-03T00:15:39.226Z,4.94
2023-01-03T00:16:41.140Z,4.92
2023-01-03T00:17:43.273Z,4.89
2023-01-03T00:18:45.613Z,4.90
2023-01-03T00:19:47.568Z,4.91
2023-01-03T00:20:49.552Z,4.89
2023-01-03T00:21:51.610Z,4.86
2023-01-03T00:22:53.504Z,4.85
2023-01-03T00:23:56.382Z,4.87
2023-01-03T00:24:58.315Z,4.87
2023-01-03T00:26:00.128Z,4.88
2023-01-03T00:27:01.973Z,4.90
2023-01-03T00:28:03.842Z,4.91
2023-01-03T00:29:05.863Z,4.92
2023-01-03T00:30:08.174Z,4.91
2023-01-03T00:31:10.980Z,4.90
2023-01-03T00:32:13.342Z,4.80
2023-01-03T00:33:15.251Z,4.76
2023-01-03T00:34:17.227Z,4.79
2023-01-03T00:35:19.014Z,4.82
2023-01-03T00:36:21.194Z,4.86
2023-01-03T00:37:22.990Z,4.87
2023-01-03T00:38:24.832Z,4.88
2023-01-03T00:39:26.973Z,4.90
2023-01-03T00:40:28.726Z,4.90
2023-01-03T00:41:30.918Z,4.90
2023-01-03T00:42:52.678Z,4.88
2023-01-03T00:43:54.565Z,4.86
2023-01-03T00:44:56.679Z,4.89
2023-01-03T00:45:58.964Z,4.93
2023-01-03T00:47:01.303Z,4.97
2023-01-03T00:48:03.132Z,4.99
2023-01-03T00:49:05.650Z,5.01
2023-01-03T00:50:07.532Z,5.05
2023-01-03T00:51:12.605Z,5.06
2023-01-03T00:52:14.392Z,5.07
2023-01-03T00:53:16.202Z,4.98
2023-01-03T00:54:17.999Z,4.89
2023-01-03T00:55:19.964Z,4.88
2023-01-03T00:56:22.860Z,4.89
2023-01-03T00:57:24.636Z,4.93
2023-01-03T00:58:26.449Z,4.98
2023-01-03T00:59:28.324Z,5.04
2023-01-03T01:00:30.150Z,5.07
2023-01-03T01:01:39.188Z,5.08
2023-01-03T01:02:46.136Z,5.08
2023-01-03T01:03:49.767Z,5.08
2023-01-03T01:04:53.688Z,5.07
2023-01-03T01:05:55.486Z,5.07
2023-01-03T01:07:01.932Z,5.07
2023-01-03T01:08:03.762Z,5.09
2023-01-03T01:09:06.400Z,5.05
2023-01-03T01:10:08.428Z,5.03
2023-01-03T01:11:10.983Z,5.04
2023-01-03T01:12:12.778Z,5.03
2023-01-03T01:13:14.563Z,5.06
2023-01-03T01:14:20.194Z,5.10
2023-01-03T01:15:22.357Z,5.12
2023-01-03T01:16:26.507Z,5.13
2023-01-03T01:17:28.749Z,5.10
2023-01-03T01:18:30.609Z,5.08
2023-01-03T01:19:39.712Z,5.10
2023-01-03T01:20:41.572Z,5.12
2023-01-03T01:21:43.452Z,5.12
2023-01-03T01:22:45.284Z,5.13
2023-01-03T01:23:47.209Z,5.15
2023-01-03T01:24:49.012Z,5.13
2023-01-03T01:25:50.945Z,5.14
2023-01-03T01:26:53.262Z,5.15
2023-01-03T01:27:54.979Z,5.15
2023-01-03T01:28:56.831Z,5.16
2023-01-03T01:29:58.652Z,5.16
2023-01-03T01:31:01.853Z,5.14
2023-01-03T01:32:04.254Z,5.18
2023-01-03T01:33:06.078Z,5.20
2023-01-03T01:34:08.145Z,5.23
2023-01-03T01:35:09.957Z,5.25
2023-01-03T01:36:22.203Z,5.26
2023-01-03T01:37:23.991Z,5.26
2023-01-03T01:38:25.787Z,5.25
2023-01-03T01:39:28.639Z,5.25
2023-01-03T01:40:31.216Z,5.24
2023-01-03T01:41:52.550Z,5.22
2023-01-03T01:43:12.665Z,5.18
2023-01-03T01:44:39.212Z,5.15
2023-01-03T01:45:41.086Z,5.16
2023-01-03T01:46:43.495Z,5.15
2023-01-03T01:47:45.614Z,5.17
2023-01-03T01:48:50.093Z,5.20
2023-01-03T01:49:55.358Z,5.24
2023-01-03T01:50:57.498Z,5.28
2023-01-03T01:51:59.328Z,5.29
2023-01-03T01:53:10.293Z,5.26
2023-01-03T01:54:12.131Z,5.25
2023-01-03T01:55:16.694Z,5.26
2023-01-03T01:56:23.939Z,5.29
2023-01-03T01:57:26.235Z,5.31
2023-01-03T01:58:29.432Z,5.29
2023-01-03T01:59:31.291Z,5.26
2023-01-03T02:00:33.509Z,5.29
2023-01-03T02:01:36.091Z,5.29
2023-01-03T02:02:38.135Z,5.32
2023-01-03T02:03:41.475Z,5.34
2023-01-03T02:04:43.809Z,5.31
2023-01-03T02:05:49.226Z,5.29
2023-01-03T02:06:51.768Z,5.32
2023-01-03T02:07:54.468Z,5.34
2023-01-03T02:08:56.394Z,5.33
2023-01-03T02:09:59.089Z,5.28
2023-01-03T02:11:00.939Z,5.22
2023-01-03T02:12:27.007Z,5.24
2023-01-03T02:13:28.829Z,5.24
2023-01-03T02:14:39.700Z,5.26
2023-01-03T02:15:41.664Z,5.25
2023-01-03T02:16:54.399Z,5.22
2023-01-03T02:17:59.087Z,5.19
2023-01-03T02:19:19.303Z,5.20
2023-01-03T02:20:24.115Z,5.21
2023-01-03T02:21:47.916Z,5.25
2023-01-03T02:23:02.706Z,5.31
2023-01-03T02:24:27.528Z,5.33
2023-01-03T02:25:35.419Z,5.34
2023-01-03T02:26:45.005Z,5.35
2023-01-03T02:28:07.393Z,5.32
2023-01-03T02:29:09.174Z,5.33
2023-01-03T02:30:40.168Z,5.34
2023-01-03T02:31:47.458Z,5.34
2023-01-03T02:32:56.184Z,5.35
2023-01-03T02:34:07.955Z,5.40
2023-01-03T02:35:28.451Z,5.41
2023-01-03T02:36:30.280Z,5.41
2023-01-03T02:37:34.798Z,5.39
2023-01-03T02:38:51.515Z,5.39
2023-01-03T02:39:53.418Z,5.39
2023-01-03T02:41:05.123Z,5.40
2023-01-03T02:42:43.585Z,5.40
2023-01-03T02:43:56.748Z,5.40
2023-01-03T02:45:07.803Z,5.37
2023-01-03T02:46:14.146Z,5.38
2023-01-03T02:47:19.615Z,5.42
2023-01-03T02:48:21.491Z,5.42
2023-01-03T02:49:27.246Z,5.41
2023-01-03T02:50:31.799Z,5.44
2023-01-03T02:51:36.902Z,5.43
2023-01-03T02:52:40.818Z,5.42
2023-01-03T02:53:46.752Z,5.38
2023-01-03T02:55:00.551Z,5.37
2023-01-03T02:56:04.988Z,5.39
2023-01-03T02:57:10.307Z,5.40
2023-01-03T02:58:17.804Z,5.41
2023-01-03T02:59:29.539Z,5.44
2023-01-03T03:00:33.895Z,5.41
2023-01-03T03:01:36.438Z,5.44
2023-01-03T03:02:39.431Z,5.47
2023-01-03T03:03:41.542Z,5.50
2023-01-03T03:04:46.705Z,5.52
2023-01-03T03:06:01.269Z,5.54
2023-01-03T03:07:09.984Z,5.56
2023-01-03T03:08:11.881Z,5.58
2023-01-03T03:09:13.859Z,5.60
2023-01-03T03:10:34.510Z,5.63
2023-01-03T03:11:56.772Z,5.61
2023-01-03T03:13:13.561Z,5.58
2023-01-03T03:14:25.594Z,5.57
2023-01-03T03:15:31.409Z,5.56
2023-01-03T03:16:48.402Z,5.57
2023-01-03T03:17:52.916Z,5.56
2023-01-03T03:19:13.486Z,5.53
2023-01-03T03:20:34.590Z,5.54
2023-01-03T03:21:55.799Z,5.50
2023-01-03T03:23:18.127Z,5.48
2023-01-03T03:24:40.562Z,5.53
2023-01-03T03:25:50.096Z,5.43
2023-01-03T03:26:53.845Z,5.45
2023-01-03T03:28:17.019Z,5.46
2023-01-03T03:29:19.157Z,5.49
2023-01-03T03:30:22.651Z,5.48
2023-01-03T03:31:30.229Z,5.49
2023-01-03T03:32:34.576Z,5.52
2023-01-03T03:33:40.335Z,5.55
2023-01-03T03:34:43.063Z,5.58
2023-01-03T03:35:48.079Z,5.60
2023-01-03T03:36:52.966Z,5.59
2023-01-03T03:37:56.452Z,5.59
2023-01-03T03:38:58.422Z,5.59
2023-01-03T03:40:18.841Z,5.54
2023-01-03T03:41:48.263Z,5.51
2023-01-03T03:43:11.274Z,5.50
2023-01-03T03:44:49.301Z,5.45
2023-01-03T03:46:03.096Z,5.37
2023-01-03T03:47:17.544Z,5.40
2023-01-03T03:48:30.265Z,5.44
2023-01-03T03:49:39.587Z,5.49
2023-01-03T03:50:46.250Z,5.47
2023-01-03T03:51:49.182Z,5.47
2023-01-03T03:52:53.394Z,5.49
2023-01-03T03:53:55.787Z,5.52
2023-01-03T03:54:59.834Z,5.53
2023-01-03T03:56:10.954Z,5.51
2023-01-03T03:57:16.447Z,5.50
2023-01-03T03:58:23.839Z,5.51
2023-01-03T03:59:27.807Z,5.52
2023-01-03T04:00:31.963Z,5.54
2023-01-03T04:01:35.338Z,5.57
2023-01-03T04:02:37.600Z,5.57
2023-01-03T04:03:40.079Z,5.55
2023-01-03T04:04:44.404Z,5.56
2023-01-03T04:06:12.507Z,5.57
2023-01-03T04:07:14.417Z,5.56
2023-01-03T04:08:16.369Z,5.57
2023-01-03T04:09:18.589Z,5.58
2023-01-03T04:10:21.010Z,5.60
2023-01-03T04:11:22.877Z,5.62
2023-01-03T04:12:25.017Z,5.64
2023-01-03T04:13:26.798Z,5.65
2023-01-03T04:14:28.695Z,5.65
2023-01-03T04:15:30.560Z,5.66
2023-01-03T04:16:32.452Z,5.66
2023-01-03T04:17:34.582Z,5.67
2023-01-03T04:18:36.417Z,5.68
2023-01-03T04:19:38.277Z,5.71
2023-01-03T04:20:40.115Z,5.71
2023-01-03T04:21:41.958Z,5.68
2023-01-03T04:22:43.915Z,5.66
2023-01-03T04:23:45.746Z,5.69
2023-01-03T04:24:47.585Z,5.71
2023-01-03T04:25:49.557Z,5.70
2023-01-03T04:26:51.420Z,5.71
2023-01-03T04:27:53.225Z,5.70
2023-01-03T04:28:54.976Z,5.70
2023-01-03T04:29:57.368Z,5.71
2023-01-03T04:30:59.194Z,5.71
2023-01-03T04:32:01.033Z,5.65
2023-01-03T04:33:05.631Z,5.64
2023-01-03T04:34:07.518Z,5.65
2023-01-03T04:35:10.042Z,5.66
2023-01-03T04:36:11.800Z,5.69
2023-01-03T04:37:13.559Z,5.70
2023-01-03T04:38:15.498Z,5.69
2023-01-03T04:39:17.358Z,5.67
2023-01-03T04:40:19.246Z,5.61
2023-01-03T04:41:21.116Z,5.59
2023-01-03T04:42:41.441Z,5.60
2023-01-03T04:44:01.760Z,5.60
2023-01-03T04:45:03.870Z,5.63
2023-01-03T04:46:05.928Z,5.66
2023-01-03T04:47:07.749Z,5.63
2023-01-03T04:48:09.644Z,5.65
2023-01-03T04:49:11.666Z,5.63
2023-01-03T04:50:13.557Z,5.63
2023-01-03T04:51:15.508Z,5.64
2023-01-03T04:52:17.648Z,5.66
2023-01-03T04:53:20.079Z,5.65
2023-01-03T04:54:21.878Z,5.62
2023-01-03T04:55:23.898Z,5.56
2023-01-03T04:56:33.157Z,5.56
2023-01-03T04:57:36.064Z,5.60
2023-01-03T04:58:37.908Z,5.60
2023-01-03T04:59:39.689Z,5.63
2023-01-03T05:00:41.692Z,5.66
2023-01-03T05:01:52.624Z,5.70
2023-01-03T05:02:54.666Z,5.69
2023-01-03T05:04:00.444Z,5.68
2023-01-03T05:05:02.337Z,5.67
2023-01-03T05:06:05.644Z,5.61
2023-01-03T05:07:07.616Z,5.59
2023-01-03T05:08:10.673Z,5.58
2023-01-03T05:09:12.611Z,5.58
2023-01-03T05:10:14.465Z,5.57
2023-01-03T05:11:16.314Z,5.57
2023-01-03T05:12:18.177Z,5.59
2023-01-03T05:13:20.230Z,5.60
2023-01-03T05:14:22.037Z,5.62
2023-01-03T05:15:23.924Z,5.64
2023-01-03T05:16:25.875Z,5.63
2023-01-03T05:17:27.769Z,5.64
2023-01-03T05:18:31.069Z,5.64
2023-01-03T05:19:33.049Z,5.65
2023-01-03T05:20:54.893Z,5.69
2023-01-03T05:22:15.641Z,5.73
2023-01-03T05:23:36.945Z,5.74
2023-01-03T05:24:57.112Z,5.69
2023-01-03T05:26:00.290Z,5.64
2023-01-03T05:27:03.287Z,5.64
2023-01-03T05:28:05.323Z,5.61
2023-01-03T05:29:07.717Z,5.61
2023-01-03T05:30:09.787Z,5.61
2023-01-03T05:31:11.842Z,5.61
2023-01-03T05:32:13.786Z,5.60
2023-01-03T05:33:15.660Z,5.60
2023-01-03T05:34:17.559Z,5.61
2023-01-03T05:35:19.455Z,5.60
2023-01-03T05:36:21.289Z,5.58
2023-01-03T05:37:25.342Z,5.56
2023-01-03T05:38:27.348Z,5.56
2023-01-03T05:39:29.203Z,5.56
2023-01-03T05:40:33.871Z,5.56
2023-01-03T05:41:58.021Z,5.57
2023-01-03T05:42:59.837Z,5.62
2023-01-03T05:44:01.620Z,5.64
2023-01-03T05:45:03.779Z,5.64
2023-01-03T05:46:06.244Z,5.60
2023-01-03T05:47:08.807Z,5.60
2023-01-03T05:48:10.796Z,5.61
2023-01-03T05:49:12.844Z,5.61
2023-01-03T05:50:14.748Z,5.64
2023-01-03T05:51:16.537Z,5.62
2023-01-03T05:52:18.388Z,5.60
2023-01-03T05:53:20.234Z,5.64
2023-01-03T05:54:22.319Z,5.65
2023-01-03T05:55:24.295Z,5.66
2023-01-03T05:56:26.138Z,5.66
2023-01-03T05:57:33.474Z,5.66
2023-01-03T05:58:37.142Z,5.68
2023-01-03T05:59:39.060Z,5.69
2023-01-03T06:00:40.987Z,5.71
2023-01-03T06:01:43.053Z,5.71
2023-01-03T06:02:45.169Z,5.71
2023-01-03T06:03:47.739Z,5.66
2023-01-03T06:04:49.676Z,5.66
2023-01-03T06:05:51.589Z,5.70
2023-01-03T06:06:53.543Z,5.68
2023-01-03T06:07:55.405Z,5.67
2023-01-03T06:08:57.353Z,5.69
2023-01-03T06:09:59.240Z,5.71
2023-01-03T06:11:04.833Z,5.73
2023-01-03T06:12:06.856Z,5.75
2023-01-03T06:13:08.658Z,5.73
2023-01-03T06:14:10.809Z,5.76
2023-01-03T06:15:12.620Z,5.78
2023-01-03T06:16:34.463Z,5.81
2023-01-03T06:17:54.552Z,5.84
2023-01-03T06:18:56.443Z,5.86
2023-01-03T06:19:58.244Z,5.87
2023-01-03T06:21:00.117Z,5.87
2023-01-03T06:22:07.053Z,5.86
2023-01-03T06:23:12.337Z,5.85
2023-01-03T06:24:14.138Z,5.84
2023-01-03T06:25:16.102Z,5.84
2023-01-03T06:26:19.100Z,5.86
2023-01-03T06:27:21.017Z,5.88
2023-01-03T06:28:22.953Z,5.87
2023-01-03T06:29:24.811Z,5.87
2023-01-03T06:30:26.833Z,5.87
2023-01-03T06:31:28.753Z,5.88
2023-01-03T06:32:30.650Z,5.87
2023-01-03T06:33:32.557Z,5.86
2023-01-03T06:34:34.382Z,5.83
2023-01-03T06:35:38.588Z,5.84
2023-01-03T06:36:40.421Z,5.82
2023-01-03T06:37:42.452Z,5.84
2023-01-03T06:38:44.557Z,5.85
2023-01-03T06:39:46.461Z,5.87
2023-01-03T06:40:49.195Z,5.86
2023-01-03T06:41:51.093Z,5.85
2023-01-03T06:42:52.895Z,5.86
2023-01-03T06:43:55.692Z,5.86
2023-01-03T06:45:16.120Z,5.85
2023-01-03T06:46:36.355Z,5.84
2023-01-03T06:47:56.739Z,5.82
2023-01-03T06:49:18.157Z,5.80
2023-01-03T06:50:38.904Z,5.80
2023-01-03T06:51:59.005Z,5.73
2023-01-03T06:53:12.694Z,5.72
2023-01-03T06:54:22.776Z,5.70
2023-01-03T06:55:24.663Z,5.66
2023-01-03T06:56:26.603Z,5.65
2023-01-03T06:57:28.532Z,5.69
2023-01-03T06:58:30.620Z,5.70
2023-01-03T06:59:32.446Z,5.72
2023-01-03T07:00:35.703Z,5.75
2023-01-03T07:01:37.841Z,5.75
2023-01-03T07:02:39.844Z,5.72
2023-01-03T07:03:41.793Z,5.73
2023-01-03T07:04:43.640Z,5.72
2023-01-03T07:05:45.471Z,5.69
2023-01-03T07:06:47.361Z,5.68
2023-01-03T07:07:49.656Z,5.67
2023-01-03T07:08:51.852Z,5.67
2023-01-03T07:09:53.694Z,5.70
2023-01-03T07:10:55.607Z,5.71
2023-01-03T07:11:57.443Z,5.71
2023-01-03T07:13:21.373Z,5.71
2023-01-03T07:14:23.310Z,5.71
2023-01-03T07:15:25.181Z,5.71
2023-01-03T07:16:28.321Z,5.61
2023-01-03T07:17:30.397Z,5.57
2023-01-03T07:18:32.565Z,5.57
2023-01-03T07:19:34.378Z,5.56
2023-01-03T07:20:36.168Z,5.58
2023-01-03T07:21:38.419Z,5.59
2023-01-03T07:22:40.293Z,5.59
2023-01-03T07:23:42.174Z,5.60
2023-01-03T07:24:44.053Z,5.63
2023-01-03T07:25:45.927Z,5.65
2023-01-03T07:26:48.277Z,5.66
2023-01-03T07:28:05.357Z,5.66
2023-01-03T07:29:09.278Z,5.71
2023-01-03T07:30:11.388Z,5.72
2023-01-03T07:31:13.313Z,5.72
2023-01-03T07:32:15.315Z,5.72
2023-01-03T07:33:18.000Z,5.70
2023-01-03T07:34:19.757Z,5.68
2023-01-03T07:35:21.557Z,5.70
2023-01-03T07:36:23.349Z,5.72
2023-01-03T07:37:25.125Z,5.72
2023-01-03T07:38:27.083Z,5.67
2023-01-03T07:39:28.871Z,5.66
2023-01-03T07:40:30.923Z,5.66
2023-01-03T07:41:51.430Z,5.69
2023-01-03T07:43:11.623Z,5.74
2023-01-03T07:44:13.542Z,5.74
2023-01-03T07:45:15.295Z,5.76
2023-01-03T07:46:22.683Z,5.79
2023-01-03T07:47:24.527Z,5.80
2023-01-03T07:48:26.369Z,5.74
2023-01-03T07:49:28.190Z,5.71
2023-01-03T07:50:32.127Z,5.73
2023-01-03T07:51:34.345Z,5.75
2023-01-03T07:52:36.159Z,5.76
2023-01-03T07:53:37.964Z,5.79
2023-01-03T07:54:39.792Z,5.78
2023-01-03T07:55:41.714Z,5.79
2023-01-03T07:56:43.563Z,5.82
2023-01-03T07:57:45.350Z,5.84
2023-01-03T07:58:47.633Z,5.83
2023-01-03T07:59:49.742Z,5.82
2023-01-03T08:00:51.558Z,5.86
2023-01-03T08:01:53.477Z,5.89
2023-01-03T08:02:56.150Z,5.88
2023-01-03T08:03:58.164Z,5.81
2023-01-03T08:05:00.140Z,5.76
2023-01-03T08:06:06.244Z,5.76
2023-01-03T08:07:08.130Z,5.74
2023-01-03T08:08:10.084Z,5.75
2023-01-03T08:09:30.528Z,5.76
2023-01-03T08:10:50.745Z,5.80
2023-01-03T08:12:11.245Z,5.79
2023-01-03T08:13:18.796Z,5.77
2023-01-03T08:14:25.734Z,5.71
2023-01-03T08:15:28.170Z,5.71
2023-01-03T08:16:30.028Z,5.73
2023-01-03T08:17:32.099Z,5.75
2023-01-03T08:18:34.079Z,5.76
2023-01-03T08:19:40.248Z,5.78
2023-01-03T08:20:45.425Z,5.78
2023-01-03T08:21:47.263Z,5.78
2023-01-03T08:22:49.106Z,5.79
2023-01-03T08:23:51.107Z,5.81
2023-01-03T08:24:52.989Z,5.84
2023-01-03T08:25:59.854Z,5.86
2023-01-03T08:27:01.667Z,5.87
2023-01-03T08:28:04.585Z,5.88
2023-01-03T08:29:06.751Z,5.87
2023-01-03T08:30:08.906Z,5.86
2023-01-03T08:31:18.729Z,5.81
2023-01-03T08:32:21.427Z,5.84
2023-01-03T08:33:25.433Z,5.87
2023-01-03T08:34:30.093Z,5.90
2023-01-03T08:35:34.852Z,5.94
2023-01-03T08:36:39.608Z,5.95
2023-01-03T08:37:41.469Z,5.97
2023-01-03T08:38:46.958Z,5.99
2023-01-03T08:39:59.828Z,6.02
2023-01-03T08:41:02.830Z,6.03
2023-01-03T08:42:06.191Z,6.03
2023-01-03T08:43:08.233Z,6.03
2023-01-03T08:44:11.454Z,6.03
2023-01-03T08:45:15.972Z,6.05
2023-01-03T08:46:18.312Z,6.04
2023-01-03T08:47:20.880Z,6.02
2023-01-03T08:48:23.134Z,6.03
2023-01-03T08:49:25.282Z,6.03
2023-01-03T08:50:27.857Z,6.03
2023-01-03T08:51:30.430Z,6.04
2023-01-03T08:52:35.247Z,6.05
2023-01-03T08:53:37.560Z,6.06
2023-01-03T08:54:40.108Z,6.04
2023-01-03T08:55:41.943Z,6.03
2023-01-03T08:56:43.731Z,6.04
2023-01-03T08:57:45.635Z,6.05
2023-01-03T08:58:47.515Z,6.07
2023-01-03T08:59:49.389Z,6.07
2023-01-03T09:00:51.231Z,6.06
2023-01-03T09:01:53.521Z,6.04
2023-01-03T09:02:59.936Z,6.03
2023-01-03T09:04:02.245Z,6.00
2023-01-03T09:05:04.400Z,5.97
2023-01-03T09:06:06.558Z,5.97
2023-01-03T09:07:08.375Z,5.98
2023-01-03T09:08:10.179Z,5.95
2023-01-03T09:09:11.992Z,5.93
2023-01-03T09:10:13.947Z,5.94
2023-01-03T09:11:15.717Z,5.97
2023-01-03T09:12:17.604Z,5.98
2023-01-03T09:13:19.436Z,6.01
2023-01-03T09:14:21.350Z,6.05
2023-01-03T09:15:23.270Z,6.07
2023-01-03T09:16:25.114Z,6.08
2023-01-03T09:17:26.972Z,6.08
2023-01-03T09:18:28.830Z,6.10
2023-01-03T09:19:30.646Z,6.14
2023-01-03T09:20:32.483Z,6.13
2023-01-03T09:21:34.373Z,6.15
2023-01-03T09:22:36.314Z,6.14
2023-01-03T09:23:38.177Z,6.14
2023-01-03T09:24:39.981Z,6.16
2023-01-03T09:25:41.908Z,6.15
2023-01-03T09:26:44.084Z,6.13
2023-01-03T09:27:48.347Z,6.14
2023-01-03T09:28:50.461Z,6.15
2023-01-03T09:29:53.414Z,6.14
2023-01-03T09:30:55.317Z,6.13
2023-01-03T09:31:57.288Z,6.13
2023-01-03T09:32:59.161Z,6.16
2023-01-03T09:34:02.942Z,6.16
2023-01-03T09:35:05.064Z,6.16
2023-01-03T09:36:07.678Z,6.14
2023-01-03T09:37:09.599Z,6.14
2023-01-03T09:38:11.555Z,6.16
2023-01-03T09:39:14.644Z,6.16
2023-01-03T09:40:16.894Z,6.15
2023-01-03T09:41:22.191Z,6.14
2023-01-03T09:42:46.304Z,6.14
2023-01-03T09:43:49.737Z,6.15
2023-01-03T09:44:52.045Z,6.16
2023-01-03T09:46:00.192Z,6.11
2023-01-03T09:47:02.831Z,6.10
2023-01-03T09:48:05.531Z,6.08
2023-01-03T09:49:07.653Z,5.98
2023-01-03T09:50:50.822Z,5.95
2023-01-03T09:51:59.989Z,5.98
2023-01-03T09:53:21.603Z,6.03
2023-01-03T09:54:46.189Z,6.06
2023-01-03T09:56:16.950Z,6.11
2023-01-03T09:57:40.028Z,6.11
2023-01-03T09:59:01.073Z,6.09
2023-01-03T10:00:22.746Z,6.07
2023-01-03T10:01:52.059Z,6.10
2023-01-03T10:03:12.393Z,6.13
2023-01-03T10:04:14.191Z,6.15
2023-01-03T10:05:22.102Z,6.14
2023-01-03T10:06:32.870Z,6.15
2023-01-03T10:07:37.423Z,6.14
2023-01-03T10:08:51.530Z,6.14
2023-01-03T10:09:56.315Z,6.16
2023-01-03T10:10:58.176Z,6.18
2023-01-03T10:11:59.908Z,6.17
2023-01-03T10:13:19.725Z,6.17
2023-01-03T10:14:22.141Z,6.20
2023-01-03T10:15:32.867Z,6.23
2023-01-03T10:16:55.028Z,6.20
2023-01-03T10:18:02.420Z,6.18
2023-01-03T10:19:22.758Z,6.18
2023-01-03T10:20:33.191Z,6.20
2023-01-03T10:21:45.206Z,6.20
2023-01-03T10:22:48.234Z,6.19
2023-01-03T10:23:50.096Z,6.13
2023-01-03T10:24:59.457Z,6.10
2023-01-03T10:26:01.931Z,6.07
2023-01-03T10:27:08.508Z,6.04
2023-01-03T10:28:19.134Z,6.01
2023-01-03T10:29:21.070Z,5.99
2023-01-03T10:30:28.918Z,5.96
2023-01-03T10:31:39.277Z,5.94
2023-01-03T10:32:50.256Z,5.96
2023-01-03T10:33:52.258Z,5.93
2023-01-03T10:35:02.890Z,5.96
2023-01-03T10:36:04.886Z,6.01
2023-01-03T10:37:19.630Z,6.04
2023-01-03T10:38:23.270Z,6.07
2023-01-03T10:39:32.050Z,6.05
2023-01-03T10:40:35.585Z,5.98
2023-01-03T10:41:37.452Z,5.98
2023-01-03T10:42:40.321Z,6.01
2023-01-03T10:43:46.311Z,6.05
2023-01-03T10:45:01.664Z,6.07
2023-01-03T10:46:05.039Z,6.06
2023-01-03T10:47:11.223Z,6.07
2023-01-03T10:48:14.486Z,6.10
2023-01-03T10:49:28.281Z,6.10
2023-01-03T10:50:37.769Z,6.11
2023-01-03T10:52:01.229Z,6.14
2023-01-03T10:53:07.746Z,6.19
2023-01-03T10:54:18.430Z,6.22
2023-01-03T10:55:22.347Z,6.25
2023-01-03T10:56:25.084Z,6.22
2023-01-03T10:57:43.093Z,6.18
2023-01-03T10:58:44.918Z,6.18
2023-01-03T10:59:49.707Z,6.21
2023-01-03T11:00:53.687Z,6.23
2023-01-03T11:02:15.419Z,6.18
2023-01-03T11:03:22.171Z,6.18
2023-01-03T11:04:24.528Z,6.17
2023-01-03T11:05:26.929Z,6.20
2023-01-03T11:06:28.779Z,6.23
2023-01-03T11:07:30.766Z,6.24
2023-01-03T11:08:46.255Z,6.26
2023-01-03T11:09:51.534Z,6.28
2023-01-03T11:10:55.284Z,6.30
2023-01-03T11:12:02.670Z,6.29
2023-01-03T11:13:22.996Z,6.30
2023-01-03T11:14:28.095Z,6.29
2023-01-03T11:15:38.376Z,6.29
2023-01-03T11:16:40.803Z,6.24
2023-01-03T11:17:59.608Z,6.23
2023-01-03T11:19:02.770Z,6.25
2023-01-03T11:20:17.833Z,6.28
2023-01-03T11:21:23.502Z,6.32
2023-01-03T11:22:33.833Z,6.31
2023-01-03T11:23:50.102Z,6.27
2023-01-03T11:25:13.065Z,6.30
2023-01-03T11:26:14.807Z,6.27
2023-01-03T11:27:42.798Z,6.30
2023-01-03T11:28:54.061Z,6.35
2023-01-03T11:30:13.975Z,6.35
2023-01-03T11:31:34.564Z,6.35
2023-01-03T11:32:36.414Z,6.37
2023-01-03T11:33:44.310Z,6.37
2023-01-03T11:35:28.559Z,6.38
2023-01-03T11:36:34.590Z,6.41
2023-01-03T11:37:55.590Z,6.40
2023-01-03T11:39:19.166Z,6.41
2023-01-03T11:40:33.551Z,6.43
2023-01-03T11:41:54.093Z,6.45
2023-01-03T11:43:01.877Z,6.41
2023-01-03T11:44:20.785Z,6.41
2023-01-03T11:45:46.509Z,6.41
2023-01-03T11:47:03.236Z,6.39
2023-01-03T11:48:25.771Z,6.40
2023-01-03T11:49:33.809Z,6.43
2023-01-03T11:50:44.706Z,6.46
2023-01-03T11:51:53.003Z,6.47
2023-01-03T11:53:02.233Z,6.45
2023-01-03T11:54:12.134Z,6.44
2023-01-03T11:55:13.884Z,6.44
2023-01-03T11:56:28.059Z,6.43
2023-01-03T11:57:33.015Z,6.39
2023-01-03T11:58:47.023Z,6.36
2023-01-03T11:59:54.973Z,6.33
2023-01-03T12:00:58.793Z,6.35
2023-01-03T12:02:03.785Z,6.36
2023-01-03T12:03:14.691Z,6.36
2023-01-03T12:04:29.300Z,6.37
2023-01-03T12:05:34.091Z,6.38
2023-01-03T12:06:59.525Z,6.39
2023-01-03T12:08:13.155Z,6.40
2023-01-03T12:09:14.869Z,6.38
2023-01-03T12:10:37.980Z,6.37
2023-01-03T12:11:45.210Z,6.40
2023-01-03T12:13:05.792Z,6.44
2023-01-03T12:14:15.320Z,6.42
2023-01-03T12:15:21.449Z,6.35
2023-01-03T12:16:37.590Z,6.35
2023-01-03T12:17:44.851Z,6.35
2023-01-03T12:18:52.706Z,6.39
2023-01-03T12:19:57.783Z,6.42
2023-01-03T12:21:19.872Z,6.44
2023-01-03T12:22:34.855Z,6.44
2023-01-03T12:23:55.688Z,6.44
2023-01-03T12:25:05.159Z,6.46
2023-01-03T12:26:12.676Z,6.45
2023-01-03T12:27:30.923Z,6.49
2023-01-03T12:28:37.053Z,6.50
2023-01-03T12:29:52.276Z,6.50
2023-01-03T12:31:31.262Z,6.52
2023-01-03T12:32:35.284Z,6.54
2023-01-03T12:33:46.795Z,6.54
2023-01-03T12:35:11.928Z,6.55
2023-01-03T12:36:37.726Z,6.57
2023-01-03T12:37:40.687Z,6.58
2023-01-03T12:38:45.142Z,6.58
2023-01-03T12:40:17.600Z,6.57
2023-01-03T12:41:34.920Z,6.55
2023-01-03T12:42:40.868Z,6.52
2023-01-03T12:43:55.383Z,6.51
2023-01-03T12:45:04.236Z,6.53
2023-01-03T12:46:20.744Z,6.54
2023-01-03T12:47:31.274Z,6.56
2023-01-03T12:48:44.451Z,6.58
2023-01-03T12:49:52.582Z,6.59
2023-01-03T12:50:55.110Z,6.60
2023-01-03T12:51:56.987Z,6.62
2023-01-03T12:53:19.336Z,6.61
2023-01-03T12:54:23.691Z,6.58
2023-01-03T12:55:41.495Z,6.57
2023-01-03T12:56:43.244Z,6.57
2023-01-03T12:57:47.840Z,6.55
2023-01-03T12:58:49.629Z,6.55
2023-01-03T13:00:03.094Z,6.54
2023-01-03T13:01:04.961Z,6.55
2023-01-03T13:02:32.344Z,6.54
2023-01-03T13:03:54.902Z,6.57
2023-01-03T13:05:15.782Z,6.59
2023-01-03T13:06:23.813Z,6.63
2023-01-03T13:07:29.854Z,6.65
2023-01-03T13:08:39.852Z,6.68
2023-01-03T13:09:45.058Z,6.66
2023-01-03T13:10:49.760Z,6.62
2023-01-03T13:11:53.661Z,6.58
2023-01-03T13:12:55.806Z,6.59
2023-01-03T13:14:00.687Z,6.59
2023-01-03T13:15:02.919Z,6.58
2023-01-03T13:16:23.642Z,6.58
2023-01-03T13:17:26.965Z,6.59
2023-01-03T13:18:32.967Z,6.58
2023-01-03T13:19:34.763Z,6.58
2023-01-03T13:20:36.741Z,6.54
2023-01-03T13:21:50.839Z,6.51
2023-01-03T13:22:54.332Z,6.52
2023-01-03T13:23:59.713Z,6.53
2023-01-03T13:25:27.774Z,6.53
2023-01-03T13:26:29.640Z,6.55
2023-01-03T13:27:36.262Z,6.56
2023-01-03T13:28:38.802Z,6.58
2023-01-03T13:29:45.365Z,6.57
2023-01-03T13:30:47.757Z,6.58
2023-01-03T13:32:08.191Z,6.56
2023-01-03T13:33:12.742Z,6.56
2023-01-03T13:34:19.507Z,6.59
2023-01-03T13:35:35.342Z,6.63
2023-01-03T13:37:06.254Z,6.61
2023-01-03T13:38:28.759Z,6.60
2023-01-03T13:39:51.035Z,6.58
2023-01-03T13:42:30.670Z,6.63
2023-01-03T13:43:39.519Z,6.67
2023-01-03T13:44:41.925Z,6.68
2023-01-03T13:45:43.773Z,6.68
2023-01-03T13:46:46.730Z,6.65
2023-01-03T13:47:48.647Z,6.63
2023-01-03T13:49:09.414Z,6.63
2023-01-03T13:50:25.171Z,6.63
2023-01-03T13:51:27.030Z,6.66
2023-01-03T13:52:36.807Z,6.66
2023-01-03T13:53:40.278Z,6.63
2023-01-03T13:54:58.625Z,6.65
2023-01-03T13:56:01.621Z,6.67
2023-01-03T13:57:05.594Z,6.67
2023-01-03T13:58:28.511Z,6.67
2023-01-03T13:59:42.521Z,6.66
2023-01-03T14:00:44.410Z,6.64
2023-01-03T14:02:01.458Z,6.66
2023-01-03T14:03:26.886Z,6.64
2023-01-03T14:04:37.369Z,6.66
2023-01-03T14:05:56.958Z,6.68
2023-01-03T14:07:17.490Z,6.70
2023-01-03T14:08:35.584Z,6.73
2023-01-03T14:09:37.863Z,6.73
2023-01-03T14:10:57.637Z,6.73
2023-01-03T14:12:00.783Z,6.74
2023-01-03T14:13:21.372Z,6.75
2023-01-03T14:14:27.882Z,6.75
2023-01-03T14:15:31.704Z,6.75
2023-01-03T14:16:47.941Z,6.75
2023-01-03T14:17:52.725Z,6.74
2023-01-03T14:19:06.870Z,6.73
2023-01-03T14:20:12.029Z,6.72
2023-01-03T14:21:25.421Z,6.70
2023-01-03T14:22:36.026Z,6.67
2023-01-03T14:24:01.240Z,6.70
2023-01-03T14:25:03.583Z,6.70
2023-01-03T14:26:12.883Z,6.70
2023-01-03T14:27:17.132Z,6.67
2023-01-03T14:28:27.146Z,6.64
2023-01-03T14:29:29.214Z,6.62
2023-01-03T14:30:32.381Z,6.61
2023-01-03T14:31:34.817Z,6.62
2023-01-03T14:32:40.052Z,6.63
2023-01-03T14:33:43.830Z,6.64
2023-01-03T14:34:45.764Z,6.65
2023-01-03T14:35:47.659Z,6.66
2023-01-03T14:36:49.432Z,6.67
2023-01-03T14:37:51.208Z,6.67
2023-01-03T14:38:53.729Z,6.66
2023-01-03T14:40:06.208Z,6.62
2023-01-03T14:41:24.134Z,6.58
2023-01-03T14:42:26.471Z,6.57
2023-01-03T14:43:29.451Z,6.56
2023-01-03T14:44:31.941Z,6.58
2023-01-03T14:45:33.698Z,6.58
2023-01-03T14:46:36.497Z,6.61
2023-01-03T14:47:39.131Z,6.64
2023-01-03T14:48:45.954Z,6.65
2023-01-03T14:49:50.114Z,6.68
2023-01-03T14:50:53.687Z,6.68